sensor_id;sensor_type;location;lat;lon;timestamp;P1;durP1;ratioP1;P2;durP2;ratioP2
50769;SDS011;36740;48.698;11.472;2022-11-03T00:01:02;46.60;;;8.95;;
50769;SDS011;36740;48.698;11.472;2022-11-03T00:03:48;55.53;;;6.70;;
50769;SDS011;36740;48.698;11.472;2022-11-03T00:06:34;8.60;;;5.70;;
50769;SDS011;36740;48.698;11.472;2022-11-03T00:09:20;14.40;;;5.40;;
50769;SDS011;36740;48.698;11.472;2022-11-03T00:12:07;11.43;;;7.18;;
50769;SDS011;36740;48.698;11.472;2022-11-03T00:14:53;8.15;;;5.10;;
50769;SDS011;36740;48.698;11.472;2022-11-03T00:17:38;9.38;;;5.25;;
50769;SDS011;36740;48.698;11.472;2022-11-03T00:20:24;8.10;;;4.60;;
50769;SDS011;36740;48.698;11.472;2022-11-03T00:23:10;7.22;;;4.30;;
50769;SDS011;36740;48.698;11.472;2022-11-03T00:26:18;9.00;;;6.00;;
50769;SDS011;36740;48.698;11.472;2022-11-03T00:29:09;8.05;;;5.13;;
50769;SDS011;36740;48.698;11.472;2022-11-03T00:31:57;11.88;;;6.10;;
50769;SDS011;36740;48.698;11.472;2022-11-03T00:34:42;8.27;;;4.97;;
50769;SDS011;36740;48.698;11.472;2022-11-03T00:37:28;10.05;;;6.93;;
50769;SDS011;36740;48.698;11.472;2022-11-03T00:40:14;16.15;;;7.07;;
50769;SDS011;36740;48.698;11.472;2022-11-03T00:43:00;7.95;;;5.60;;
50769;SDS011;36740;48.698;11.472;2022-11-03T00:45:46;13.15;;;7.43;;
50769;SDS011;36740;48.698;11.472;2022-11-03T00:48:31;7.13;;;5.60;;
50769;SDS011;36740;48.698;11.472;2022-11-03T00:51:32;9.52;;;7.15;;
50769;SDS011;36740;48.698;11.472;2022-11-03T00:54:19;9.98;;;6.75;;
50769;SDS011;36740;48.698;11.472;2022-11-03T00:57:05;10.23;;;6.20;;
50769;SDS011;36740;48.698;11.472;2022-11-03T00:59:50;17.52;;;6.18;;
50769;SDS011;36740;48.698;11.472;2022-11-03T01:02:36;8.23;;;5.72;;
50769;SDS011;36740;48.698;11.472;2022-11-03T01:05:22;11.10;;;7.50;;
50769;SDS011;36740;48.698;11.472;2022-11-03T01:08:32;8.88;;;4.88;;
50769;SDS011;36740;48.698;11.472;2022-11-03T01:11:20;9.10;;;5.28;;
50769;SDS011;36740;48.698;11.472;2022-11-03T01:14:27;24.25;;;6.30;;
50769;SDS011;36740;48.698;11.472;2022-11-03T01:17:20;12.15;;;5.28;;
50769;SDS011;36740;48.698;11.472;2022-11-03T01:20:08;61.97;;;8.32;;
50769;SDS011;36740;48.698;11.472;2022-11-03T01:22:55;30.33;;;6.07;;
50769;SDS011;36740;48.698;11.472;2022-11-03T01:25:40;17.17;;;7.57;;
50769;SDS011;36740;48.698;11.472;2022-11-03T01:28:26;54.70;;;8.82;;
50769;SDS011;36740;48.698;11.472;2022-11-03T01:31:16;49.60;;;9.70;;
50769;SDS011;36740;48.698;11.472;2022-11-03T01:34:08;16.30;;;6.13;;
50769;SDS011;36740;48.698;11.472;2022-11-03T01:36:59;33.13;;;7.63;;
50769;SDS011;36740;48.698;11.472;2022-11-03T01:39:45;7.90;;;6.20;;
50769;SDS011;36740;48.698;11.472;2022-11-03T01:42:31;17.48;;;6.93;;
50769;SDS011;36740;48.698;11.472;2022-11-03T01:45:16;33.63;;;7.32;;
50769;SDS011;36740;48.698;11.472;2022-11-03T01:48:02;13.27;;;6.65;;
50769;SDS011;36740;48.698;11.472;2022-11-03T01:50:48;9.63;;;5.53;;
50769;SDS011;36740;48.698;11.472;2022-11-03T01:53:36;13.40;;;7.60;;
50769;SDS011;36740;48.698;11.472;2022-11-03T01:59:14;17.80;;;7.43;;
50769;SDS011;36740;48.698;11.472;2022-11-03T02:02:01;36.90;;;7.75;;
50769;SDS011;36740;48.698;11.472;2022-11-03T02:04:47;103.03;;;11.13;;
50769;SDS011;36740;48.698;11.472;2022-11-03T02:07:35;306.10;;;26.45;;
50769;SDS011;36740;48.698;11.472;2022-11-03T02:10:26;26.85;;;6.88;;
50769;SDS011;36740;48.698;11.472;2022-11-03T02:13:15;56.08;;;9.55;;
50769;SDS011;36740;48.698;11.472;2022-11-03T02:16:07;22.13;;;7.70;;
50769;SDS011;36740;48.698;11.472;2022-11-03T02:18:53;184.18;;;15.63;;
50769;SDS011;36740;48.698;11.472;2022-11-03T02:21:46;37.35;;;9.23;;
50769;SDS011;36740;48.698;11.472;2022-11-03T02:24:50;70.35;;;11.63;;
50769;SDS011;36740;48.698;11.472;2022-11-03T02:27:39;49.92;;;8.60;;
50769;SDS011;36740;48.698;11.472;2022-11-03T02:30:30;21.67;;;5.85;;
50769;SDS011;36740;48.698;11.472;2022-11-03T02:39:31;24.90;;;5.68;;
50769;SDS011;36740;48.698;11.472;2022-11-03T02:42:21;7.82;;;5.40;;
50769;SDS011;36740;48.698;11.472;2022-11-03T02:45:09;22.33;;;6.20;;
50769;SDS011;36740;48.698;11.472;2022-11-03T02:47:57;15.20;;;5.32;;
50769;SDS011;36740;48.698;11.472;2022-11-03T02:50:46;9.30;;;5.63;;
50769;SDS011;36740;48.698;11.472;2022-11-03T02:53:37;7.13;;;5.68;;
50769;SDS011;36740;48.698;11.472;2022-11-03T02:56:27;7.40;;;4.55;;
50769;SDS011;36740;48.698;11.472;2022-11-03T02:59:16;10.98;;;6.03;;
50769;SDS011;36740;48.698;11.472;2022-11-03T03:02:08;106.18;;;9.85;;
50769;SDS011;36740;48.698;11.472;2022-11-03T03:05:00;13.43;;;6.18;;
50769;SDS011;36740;48.698;11.472;2022-11-03T03:07:51;11.43;;;4.25;;
50769;SDS011;36740;48.698;11.472;2022-11-03T03:10:42;69.32;;;8.52;;
50769;SDS011;36740;48.698;11.472;2022-11-03T03:13:30;26.52;;;8.00;;
50769;SDS011;36740;48.698;11.472;2022-11-03T03:16:22;20.75;;;6.53;;
50769;SDS011;36740;48.698;11.472;2022-11-03T03:22:46;20.23;;;8.88;;
50769;SDS011;36740;48.698;11.472;2022-11-03T03:25:44;129.80;;;12.35;;
50769;SDS011;36740;48.698;11.472;2022-11-03T03:28:39;13.77;;;6.88;;
50769;SDS011;36740;48.698;11.472;2022-11-03T03:31:31;14.75;;;6.63;;
50769;SDS011;36740;48.698;11.472;2022-11-03T03:34:22;51.90;;;7.57;;
50769;SDS011;36740;48.698;11.472;2022-11-03T03:37:10;14.35;;;6.68;;
50769;SDS011;36740;48.698;11.472;2022-11-03T03:40:01;38.85;;;7.10;;
50769;SDS011;36740;48.698;11.472;2022-11-03T03:42:51;59.53;;;7.60;;
50769;SDS011;36740;48.698;11.472;2022-11-03T03:45:37;98.43;;;12.57;;
50769;SDS011;36740;48.698;11.472;2022-11-03T03:48:23;13.77;;;7.00;;
50769;SDS011;36740;48.698;11.472;2022-11-03T03:51:09;40.65;;;10.20;;
50769;SDS011;36740;48.698;11.472;2022-11-03T03:53:57;6.88;;;4.97;;
50769;SDS011;36740;48.698;11.472;2022-11-03T04:00:02;38.95;;;7.38;;
50769;SDS011;36740;48.698;11.472;2022-11-03T04:02:49;17.45;;;7.18;;
50769;SDS011;36740;48.698;11.472;2022-11-03T04:05:34;14.48;;;7.57;;
50769;SDS011;36740;48.698;11.472;2022-11-03T04:08:20;37.65;;;7.00;;
50769;SDS011;36740;48.698;11.472;2022-11-03T04:11:06;43.15;;;7.75;;
50769;SDS011;36740;48.698;11.472;2022-11-03T04:14:10;15.98;;;8.13;;
50769;SDS011;36740;48.698;11.472;2022-11-03T04:17:28;11.02;;;6.85;;
50769;SDS011;36740;48.698;11.472;2022-11-03T04:20:33;50.42;;;10.25;;
50769;SDS011;36740;48.698;11.472;2022-11-03T04:23:38;50.03;;;8.82;;
50769;SDS011;36740;48.698;11.472;2022-11-03T04:26:23;13.73;;;6.75;;
50769;SDS011;36740;48.698;11.472;2022-11-03T04:29:09;111.88;;;11.25;;
50769;SDS011;36740;48.698;11.472;2022-11-03T04:31:55;74.50;;;10.65;;
50769;SDS011;36740;48.698;11.472;2022-11-03T04:34:41;37.55;;;10.10;;
50769;SDS011;36740;48.698;11.472;2022-11-03T04:37:29;11.63;;;8.10;;
50769;SDS011;36740;48.698;11.472;2022-11-03T04:40:15;17.17;;;7.45;;
50769;SDS011;36740;48.698;11.472;2022-11-03T04:43:03;12.30;;;7.00;;
50769;SDS011;36740;48.698;11.472;2022-11-03T04:45:56;13.23;;;8.50;;
50769;SDS011;36740;48.698;11.472;2022-11-03T04:48:43;9.93;;;6.70;;
50769;SDS011;36740;48.698;11.472;2022-11-03T04:51:30;13.40;;;8.77;;
50769;SDS011;36740;48.698;11.472;2022-11-03T04:54:18;70.75;;;10.50;;
50769;SDS011;36740;48.698;11.472;2022-11-03T04:57:10;9.07;;;6.88;;
50769;SDS011;36740;48.698;11.472;2022-11-03T04:59:57;10.45;;;7.22;;
50769;SDS011;36740;48.698;11.472;2022-11-03T05:02:47;15.38;;;8.07;;
50769;SDS011;36740;48.698;11.472;2022-11-03T05:05:34;11.45;;;6.78;;
50769;SDS011;36740;48.698;11.472;2022-11-03T05:08:20;40.67;;;7.82;;
50769;SDS011;36740;48.698;11.472;2022-11-03T05:17:04;25.13;;;10.75;;
50769;SDS011;36740;48.698;11.472;2022-11-03T05:20:00;41.33;;;7.15;;
50769;SDS011;36740;48.698;11.472;2022-11-03T05:22:47;13.93;;;9.02;;
50769;SDS011;36740;48.698;11.472;2022-11-03T05:25:37;10.32;;;6.72;;
50769;SDS011;36740;48.698;11.472;2022-11-03T05:31:27;112.03;;;13.48;;
50769;SDS011;36740;48.698;11.472;2022-11-03T05:43:09;61.28;;;10.13;;
50769;SDS011;36740;48.698;11.472;2022-11-03T05:46:03;14.18;;;7.70;;
50769;SDS011;36740;48.698;11.472;2022-11-03T05:48:49;19.80;;;11.95;;
50769;SDS011;36740;48.698;11.472;2022-11-03T05:51:38;24.38;;;8.90;;
50769;SDS011;36740;48.698;11.472;2022-11-03T05:54:30;30.95;;;10.73;;
50769;SDS011;36740;48.698;11.472;2022-11-03T05:57:17;65.75;;;13.70;;
50769;SDS011;36740;48.698;11.472;2022-11-03T06:00:06;53.03;;;11.15;;
50769;SDS011;36740;48.698;11.472;2022-11-03T06:03:06;38.30;;;10.48;;
50769;SDS011;36740;48.698;11.472;2022-11-03T06:05:54;20.35;;;8.75;;
50769;SDS011;36740;48.698;11.472;2022-11-03T06:08:42;80.38;;;12.05;;
50769;SDS011;36740;48.698;11.472;2022-11-03T06:11:30;118.95;;;14.93;;
50769;SDS011;36740;48.698;11.472;2022-11-03T06:14:20;108.40;;;14.18;;
50769;SDS011;36740;48.698;11.472;2022-11-03T06:17:16;33.08;;;12.10;;
50769;SDS011;36740;48.698;11.472;2022-11-03T06:20:17;19.75;;;11.13;;
50769;SDS011;36740;48.698;11.472;2022-11-03T06:23:07;20.13;;;11.70;;
50769;SDS011;36740;48.698;11.472;2022-11-03T06:28:42;35.65;;;13.88;;
50769;SDS011;36740;48.698;11.472;2022-11-03T06:31:28;52.20;;;16.42;;
50769;SDS011;36740;48.698;11.472;2022-11-03T06:34:20;142.32;;;20.23;;
50769;SDS011;36740;48.698;11.472;2022-11-03T06:37:12;108.53;;;18.00;;
50769;SDS011;36740;48.698;11.472;2022-11-03T06:42:54;37.85;;;12.18;;
50769;SDS011;36740;48.698;11.472;2022-11-03T06:49:00;14.38;;;9.90;;
50769;SDS011;36740;48.698;11.472;2022-11-03T06:51:48;21.00;;;9.85;;
50769;SDS011;36740;48.698;11.472;2022-11-03T06:54:34;28.45;;;11.40;;
50769;SDS011;36740;48.698;11.472;2022-11-03T06:57:20;20.65;;;12.70;;
50769;SDS011;36740;48.698;11.472;2022-11-03T07:00:19;23.33;;;11.88;;
50769;SDS011;36740;48.698;11.472;2022-11-03T07:03:08;16.73;;;11.80;;
50769;SDS011;36740;48.698;11.472;2022-11-03T07:06:03;16.20;;;10.95;;
50769;SDS011;36740;48.698;11.472;2022-11-03T07:08:59;22.48;;;14.18;;
50769;SDS011;36740;48.698;11.472;2022-11-03T07:11:49;17.45;;;11.93;;
50769;SDS011;36740;48.698;11.472;2022-11-03T07:14:37;31.02;;;13.38;;
50769;SDS011;36740;48.698;11.472;2022-11-03T07:17:23;40.92;;;13.15;;
50769;SDS011;36740;48.698;11.472;2022-11-03T07:20:12;22.95;;;13.20;;
50769;SDS011;36740;48.698;11.472;2022-11-03T07:23:00;22.65;;;11.40;;
50769;SDS011;36740;48.698;11.472;2022-11-03T07:25:49;16.98;;;11.70;;
50769;SDS011;36740;48.698;11.472;2022-11-03T07:28:38;24.60;;;10.32;;
50769;SDS011;36740;48.698;11.472;2022-11-03T07:31:24;20.48;;;10.07;;
50769;SDS011;36740;48.698;11.472;2022-11-03T07:34:13;18.77;;;11.23;;
50769;SDS011;36740;48.698;11.472;2022-11-03T07:37:03;16.58;;;11.13;;
50769;SDS011;36740;48.698;11.472;2022-11-03T07:39:49;31.30;;;14.90;;
50769;SDS011;36740;48.698;11.472;2022-11-03T07:42:37;23.80;;;13.43;;
50769;SDS011;36740;48.698;11.472;2022-11-03T07:54:34;53.10;;;11.18;;
50769;SDS011;36740;48.698;11.472;2022-11-03T07:57:21;110.50;;;16.15;;
50769;SDS011;36740;48.698;11.472;2022-11-03T08:00:14;45.28;;;14.02;;
50769;SDS011;36740;48.698;11.472;2022-11-03T08:03:12;24.73;;;12.80;;
50769;SDS011;36740;48.698;11.472;2022-11-03T08:06:10;43.75;;;12.85;;
50769;SDS011;36740;48.698;11.472;2022-11-03T08:08:56;20.08;;;12.30;;
50769;SDS011;36740;48.698;11.472;2022-11-03T08:11:42;39.70;;;12.35;;
50769;SDS011;36740;48.698;11.472;2022-11-03T08:14:28;25.65;;;10.88;;
50769;SDS011;36740;48.698;11.472;2022-11-03T08:17:15;17.52;;;12.15;;
50769;SDS011;36740;48.698;11.472;2022-11-03T08:20:01;56.47;;;16.70;;
50769;SDS011;36740;48.698;11.472;2022-11-03T08:22:48;37.42;;;14.25;;
50769;SDS011;36740;48.698;11.472;2022-11-03T08:25:34;17.83;;;11.90;;
50769;SDS011;36740;48.698;11.472;2022-11-03T08:28:19;24.00;;;13.57;;
50769;SDS011;36740;48.698;11.472;2022-11-03T08:31:05;63.85;;;17.80;;
50769;SDS011;36740;48.698;11.472;2022-11-03T08:33:51;16.63;;;12.93;;
50769;SDS011;36740;48.698;11.472;2022-11-03T08:36:37;20.10;;;13.30;;
50769;SDS011;36740;48.698;11.472;2022-11-03T08:39:22;44.90;;;12.15;;
50769;SDS011;36740;48.698;11.472;2022-11-03T08:42:08;23.95;;;16.17;;
50769;SDS011;36740;48.698;11.472;2022-11-03T08:44:54;22.15;;;12.65;;
50769;SDS011;36740;48.698;11.472;2022-11-03T08:47:40;25.80;;;16.10;;
50769;SDS011;36740;48.698;11.472;2022-11-03T08:50:26;18.88;;;12.32;;
50769;SDS011;36740;48.698;11.472;2022-11-03T08:53:12;64.95;;;15.55;;
50769;SDS011;36740;48.698;11.472;2022-11-03T08:55:57;14.77;;;9.98;;
50769;SDS011;36740;48.698;11.472;2022-11-03T08:58:43;34.80;;;15.05;;
50769;SDS011;36740;48.698;11.472;2022-11-03T09:01:29;22.35;;;12.07;;
50769;SDS011;36740;48.698;11.472;2022-11-03T09:04:15;41.22;;;14.20;;
50769;SDS011;36740;48.698;11.472;2022-11-03T09:07:00;16.85;;;10.05;;
50769;SDS011;36740;48.698;11.472;2022-11-03T09:09:46;24.15;;;11.25;;
50769;SDS011;36740;48.698;11.472;2022-11-03T09:12:32;21.50;;;12.60;;
50769;SDS011;36740;48.698;11.472;2022-11-03T09:15:18;22.13;;;13.13;;
50769;SDS011;36740;48.698;11.472;2022-11-03T09:18:03;19.20;;;15.25;;
50769;SDS011;36740;48.698;11.472;2022-11-03T09:20:49;28.25;;;15.52;;
50769;SDS011;36740;48.698;11.472;2022-11-03T09:23:35;17.40;;;11.02;;
50769;SDS011;36740;48.698;11.472;2022-11-03T09:26:21;17.25;;;11.50;;
50769;SDS011;36740;48.698;11.472;2022-11-03T09:29:06;30.58;;;14.32;;
50769;SDS011;36740;48.698;11.472;2022-11-03T09:31:52;19.05;;;12.57;;
50769;SDS011;36740;48.698;11.472;2022-11-03T09:34:38;24.48;;;13.38;;
50769;SDS011;36740;48.698;11.472;2022-11-03T09:37:24;17.40;;;11.32;;
50769;SDS011;36740;48.698;11.472;2022-11-03T09:40:10;30.08;;;13.32;;
50769;SDS011;36740;48.698;11.472;2022-11-03T09:43:01;20.40;;;13.82;;
50769;SDS011;36740;48.698;11.472;2022-11-03T09:45:47;15.88;;;14.15;;
50769;SDS011;36740;48.698;11.472;2022-11-03T09:48:33;19.48;;;13.68;;
50769;SDS011;36740;48.698;11.472;2022-11-03T09:51:19;19.20;;;13.25;;
50769;SDS011;36740;48.698;11.472;2022-11-03T09:54:13;16.92;;;12.20;;
50769;SDS011;36740;48.698;11.472;2022-11-03T09:57:04;20.35;;;14.82;;
50769;SDS011;36740;48.698;11.472;2022-11-03T09:59:55;22.70;;;14.70;;
50769;SDS011;36740;48.698;11.472;2022-11-03T10:02:41;21.45;;;14.38;;
50769;SDS011;36740;48.698;11.472;2022-11-03T10:05:27;22.83;;;14.80;;
50769;SDS011;36740;48.698;11.472;2022-11-03T10:11:02;29.35;;;16.13;;
50769;SDS011;36740;48.698;11.472;2022-11-03T10:13:51;29.85;;;15.75;;
50769;SDS011;36740;48.698;11.472;2022-11-03T10:16:40;33.17;;;17.23;;
50769;SDS011;36740;48.698;11.472;2022-11-03T10:19:27;19.10;;;13.27;;
50769;SDS011;36740;48.698;11.472;2022-11-03T10:22:13;22.92;;;13.10;;
50769;SDS011;36740;48.698;11.472;2022-11-03T10:28:15;22.08;;;11.48;;
50769;SDS011;36740;48.698;11.472;2022-11-03T10:31:03;22.88;;;15.90;;
50769;SDS011;36740;48.698;11.472;2022-11-03T10:33:54;24.17;;;16.02;;
50769;SDS011;36740;48.698;11.472;2022-11-03T10:36:40;21.80;;;13.32;;
50769;SDS011;36740;48.698;11.472;2022-11-03T10:39:29;24.67;;;13.65;;
50769;SDS011;36740;48.698;11.472;2022-11-03T10:42:19;21.42;;;13.18;;
50769;SDS011;36740;48.698;11.472;2022-11-03T10:47:59;18.42;;;12.13;;
50769;SDS011;36740;48.698;11.472;2022-11-03T10:50:49;22.13;;;15.27;;
50769;SDS011;36740;48.698;11.472;2022-11-03T10:53:35;25.00;;;17.15;;
50769;SDS011;36740;48.698;11.472;2022-11-03T10:56:21;24.80;;;13.45;;
50769;SDS011;36740;48.698;11.472;2022-11-03T10:59:08;30.48;;;21.70;;
50769;SDS011;36740;48.698;11.472;2022-11-03T11:02:01;27.83;;;16.75;;
50769;SDS011;36740;48.698;11.472;2022-11-03T11:05:00;24.75;;;14.27;;
50769;SDS011;36740;48.698;11.472;2022-11-03T11:10:35;20.85;;;14.70;;
50769;SDS011;36740;48.698;11.472;2022-11-03T11:20:15;18.27;;;10.85;;
50769;SDS011;36740;48.698;11.472;2022-11-03T11:23:41;17.92;;;11.48;;
50769;SDS011;36740;48.698;11.472;2022-11-03T11:31:55;17.67;;;10.93;;
50769;SDS011;36740;48.698;11.472;2022-11-03T11:34:41;18.73;;;11.13;;
50769;SDS011;36740;48.698;11.472;2022-11-03T11:51:54;22.65;;;16.30;;
50769;SDS011;36740;48.698;11.472;2022-11-03T11:54:46;26.25;;;12.10;;
50769;SDS011;36740;48.698;11.472;2022-11-03T11:57:32;15.32;;;10.82;;
50769;SDS011;36740;48.698;11.472;2022-11-03T12:00:20;29.50;;;12.23;;
50769;SDS011;36740;48.698;11.472;2022-11-03T12:03:12;19.38;;;12.93;;
50769;SDS011;36740;48.698;11.472;2022-11-03T12:08:45;19.35;;;12.07;;
50769;SDS011;36740;48.698;11.472;2022-11-03T12:11:52;19.17;;;13.10;;
50769;SDS011;36740;48.698;11.472;2022-11-03T12:14:41;17.98;;;11.52;;
50769;SDS011;36740;48.698;11.472;2022-11-03T12:20:54;17.65;;;10.82;;
50769;SDS011;36740;48.698;11.472;2022-11-03T12:23:41;14.35;;;11.35;;
50769;SDS011;36740;48.698;11.472;2022-11-03T12:29:17;16.88;;;11.88;;
50769;SDS011;36740;48.698;11.472;2022-11-03T12:32:03;19.38;;;11.70;;
50769;SDS011;36740;48.698;11.472;2022-11-03T12:34:49;17.98;;;11.18;;
50769;SDS011;36740;48.698;11.472;2022-11-03T12:37:36;17.48;;;11.82;;
50769;SDS011;36740;48.698;11.472;2022-11-03T12:40:22;20.17;;;13.18;;
50769;SDS011;36740;48.698;11.472;2022-11-03T12:43:08;21.27;;;12.82;;
50769;SDS011;36740;48.698;11.472;2022-11-03T12:45:53;22.35;;;12.05;;
50769;SDS011;36740;48.698;11.472;2022-11-03T12:48:39;14.48;;;10.18;;
50769;SDS011;36740;48.698;11.472;2022-11-03T12:51:28;17.83;;;13.13;;
50769;SDS011;36740;48.698;11.472;2022-11-03T12:54:14;17.77;;;11.25;;
50769;SDS011;36740;48.698;11.472;2022-11-03T12:56:59;14.82;;;8.90;;
50769;SDS011;36740;48.698;11.472;2022-11-03T12:59:45;14.68;;;11.55;;
50769;SDS011;36740;48.698;11.472;2022-11-03T13:02:31;15.38;;;10.27;;
50769;SDS011;36740;48.698;11.472;2022-11-03T13:05:18;18.88;;;12.02;;
50769;SDS011;36740;48.698;11.472;2022-11-03T13:08:04;15.48;;;9.82;;
50769;SDS011;36740;48.698;11.472;2022-11-03T13:10:50;17.88;;;11.98;;
50769;SDS011;36740;48.698;11.472;2022-11-03T13:13:36;17.02;;;11.38;;
50769;SDS011;36740;48.698;11.472;2022-11-03T13:16:22;16.92;;;12.65;;
50769;SDS011;36740;48.698;11.472;2022-11-03T13:19:07;22.80;;;14.07;;
50769;SDS011;36740;48.698;11.472;2022-11-03T13:21:55;27.05;;;14.10;;
50769;SDS011;36740;48.698;11.472;2022-11-03T13:24:40;20.90;;;10.60;;
50769;SDS011;36740;48.698;11.472;2022-11-03T13:27:29;20.65;;;11.63;;
50769;SDS011;36740;48.698;11.472;2022-11-03T13:30:15;17.67;;;12.63;;
50769;SDS011;36740;48.698;11.472;2022-11-03T13:33:00;16.02;;;11.85;;
50769;SDS011;36740;48.698;11.472;2022-11-03T13:35:46;20.10;;;11.63;;
50769;SDS011;36740;48.698;11.472;2022-11-03T13:38:32;17.67;;;11.93;;
50769;SDS011;36740;48.698;11.472;2022-11-03T13:41:18;23.15;;;14.48;;
50769;SDS011;36740;48.698;11.472;2022-11-03T13:44:03;18.55;;;12.32;;
50769;SDS011;36740;48.698;11.472;2022-11-03T13:46:49;23.45;;;13.63;;
50769;SDS011;36740;48.698;11.472;2022-11-03T13:49:35;14.43;;;10.70;;
50769;SDS011;36740;48.698;11.472;2022-11-03T13:52:21;22.58;;;10.57;;
50769;SDS011;36740;48.698;11.472;2022-11-03T13:55:09;15.80;;;10.18;;
50769;SDS011;36740;48.698;11.472;2022-11-03T13:57:56;13.85;;;9.57;;
50769;SDS011;36740;48.698;11.472;2022-11-03T14:00:41;11.63;;;8.45;;
50769;SDS011;36740;48.698;11.472;2022-11-03T14:03:27;14.05;;;9.85;;
50769;SDS011;36740;48.698;11.472;2022-11-03T14:06:13;13.30;;;9.73;;
50769;SDS011;36740;48.698;11.472;2022-11-03T14:08:59;18.02;;;12.32;;
50769;SDS011;36740;48.698;11.472;2022-11-03T14:11:45;17.35;;;11.43;;
50769;SDS011;36740;48.698;11.472;2022-11-03T14:14:49;13.30;;;9.85;;
50769;SDS011;36740;48.698;11.472;2022-11-03T14:17:35;16.48;;;9.95;;
50769;SDS011;36740;48.698;11.472;2022-11-03T14:20:22;15.82;;;9.35;;
50769;SDS011;36740;48.698;11.472;2022-11-03T14:23:08;18.20;;;11.43;;
50769;SDS011;36740;48.698;11.472;2022-11-03T14:25:54;18.88;;;8.73;;
50769;SDS011;36740;48.698;11.472;2022-11-03T14:28:39;15.25;;;9.45;;
50769;SDS011;36740;48.698;11.472;2022-11-03T14:31:25;16.55;;;9.75;;
50769;SDS011;36740;48.698;11.472;2022-11-03T14:34:11;16.63;;;10.55;;
50769;SDS011;36740;48.698;11.472;2022-11-03T14:36:57;14.18;;;10.18;;
50769;SDS011;36740;48.698;11.472;2022-11-03T14:39:42;17.77;;;9.88;;
50769;SDS011;36740;48.698;11.472;2022-11-03T14:42:28;12.65;;;7.07;;
50769;SDS011;36740;48.698;11.472;2022-11-03T14:45:14;14.38;;;8.43;;
50769;SDS011;36740;48.698;11.472;2022-11-03T14:48:00;21.55;;;11.95;;
50769;SDS011;36740;48.698;11.472;2022-11-03T14:50:46;17.15;;;11.10;;
50769;SDS011;36740;48.698;11.472;2022-11-03T14:53:32;17.20;;;9.73;;
50769;SDS011;36740;48.698;11.472;2022-11-03T14:56:17;16.27;;;11.50;;
50769;SDS011;36740;48.698;11.472;2022-11-03T14:59:03;15.63;;;9.68;;
50769;SDS011;36740;48.698;11.472;2022-11-03T15:01:49;19.23;;;11.30;;
50769;SDS011;36740;48.698;11.472;2022-11-03T15:04:38;11.07;;;8.40;;
50769;SDS011;36740;48.698;11.472;2022-11-03T15:07:23;14.93;;;10.32;;
50769;SDS011;36740;48.698;11.472;2022-11-03T15:10:09;12.55;;;8.13;;
50769;SDS011;36740;48.698;11.472;2022-11-03T15:12:55;15.10;;;9.70;;
50769;SDS011;36740;48.698;11.472;2022-11-03T15:15:41;12.15;;;8.23;;
50769;SDS011;36740;48.698;11.472;2022-11-03T15:18:27;14.73;;;10.80;;
50769;SDS011;36740;48.698;11.472;2022-11-03T15:21:12;17.77;;;9.93;;
50769;SDS011;36740;48.698;11.472;2022-11-03T15:23:58;20.15;;;9.15;;
50769;SDS011;36740;48.698;11.472;2022-11-03T15:26:44;15.00;;;8.85;;
50769;SDS011;36740;48.698;11.472;2022-11-03T15:29:30;15.15;;;10.07;;
50769;SDS011;36740;48.698;11.472;2022-11-03T15:32:16;18.90;;;9.95;;
50769;SDS011;36740;48.698;11.472;2022-11-03T15:35:02;15.82;;;10.93;;
50769;SDS011;36740;48.698;11.472;2022-11-03T15:37:48;18.02;;;12.43;;
50769;SDS011;36740;48.698;11.472;2022-11-03T15:40:34;18.92;;;12.50;;
50769;SDS011;36740;48.698;11.472;2022-11-03T15:43:22;16.50;;;11.80;;
50769;SDS011;36740;48.698;11.472;2022-11-03T15:46:08;19.65;;;12.23;;
50769;SDS011;36740;48.698;11.472;2022-11-03T15:48:55;19.85;;;10.60;;
50769;SDS011;36740;48.698;11.472;2022-11-03T15:51:41;17.02;;;11.48;;
50769;SDS011;36740;48.698;11.472;2022-11-03T15:54:27;22.23;;;10.95;;
50769;SDS011;36740;48.698;11.472;2022-11-03T15:57:13;15.75;;;10.48;;
50769;SDS011;36740;48.698;11.472;2022-11-03T15:59:59;15.27;;;10.68;;
50769;SDS011;36740;48.698;11.472;2022-11-03T16:02:45;16.30;;;9.40;;
50769;SDS011;36740;48.698;11.472;2022-11-03T16:05:35;11.98;;;8.60;;
50769;SDS011;36740;48.698;11.472;2022-11-03T16:08:20;12.60;;;9.45;;
50769;SDS011;36740;48.698;11.472;2022-11-03T16:11:06;17.00;;;10.63;;
50769;SDS011;36740;48.698;11.472;2022-11-03T16:13:52;16.58;;;10.10;;
50769;SDS011;36740;48.698;11.472;2022-11-03T16:16:38;14.52;;;11.07;;
50769;SDS011;36740;48.698;11.472;2022-11-03T16:19:23;15.82;;;10.77;;
50769;SDS011;36740;48.698;11.472;2022-11-03T16:22:09;16.45;;;10.15;;
50769;SDS011;36740;48.698;11.472;2022-11-03T16:24:55;19.83;;;12.43;;
50769;SDS011;36740;48.698;11.472;2022-11-03T16:27:41;13.63;;;10.20;;
50769;SDS011;36740;48.698;11.472;2022-11-03T16:30:27;15.20;;;10.55;;
50769;SDS011;36740;48.698;11.472;2022-11-03T16:33:14;20.63;;;10.55;;
50769;SDS011;36740;48.698;11.472;2022-11-03T16:36:00;20.67;;;11.93;;
50769;SDS011;36740;48.698;11.472;2022-11-03T16:38:45;15.13;;;10.95;;
50769;SDS011;36740;48.698;11.472;2022-11-03T16:41:31;17.20;;;11.25;;
50769;SDS011;36740;48.698;11.472;2022-11-03T16:44:17;14.45;;;10.48;;
50769;SDS011;36740;48.698;11.472;2022-11-03T16:47:03;15.55;;;9.48;;
50769;SDS011;36740;48.698;11.472;2022-11-03T16:49:49;23.77;;;11.10;;
50769;SDS011;36740;48.698;11.472;2022-11-03T16:52:35;21.08;;;11.57;;
50769;SDS011;36740;48.698;11.472;2022-11-03T16:55:21;19.90;;;10.98;;
50769;SDS011;36740;48.698;11.472;2022-11-03T16:58:06;11.73;;;8.95;;
50769;SDS011;36740;48.698;11.472;2022-11-03T17:00:52;17.45;;;10.68;;
50769;SDS011;36740;48.698;11.472;2022-11-03T17:03:38;22.40;;;11.90;;
50769;SDS011;36740;48.698;11.472;2022-11-03T17:06:24;16.60;;;11.35;;
50769;SDS011;36740;48.698;11.472;2022-11-03T17:09:09;18.13;;;11.07;;
50769;SDS011;36740;48.698;11.472;2022-11-03T17:11:57;15.85;;;11.00;;
50769;SDS011;36740;48.698;11.472;2022-11-03T17:14:43;18.23;;;12.32;;
50769;SDS011;36740;48.698;11.472;2022-11-03T17:17:29;16.15;;;11.35;;
50769;SDS011;36740;48.698;11.472;2022-11-03T17:20:15;19.80;;;9.25;;
50769;SDS011;36740;48.698;11.472;2022-11-03T17:23:01;16.95;;;9.90;;
50769;SDS011;36740;48.698;11.472;2022-11-03T17:25:48;19.00;;;12.73;;
50769;SDS011;36740;48.698;11.472;2022-11-03T17:28:34;15.68;;;12.05;;
50769;SDS011;36740;48.698;11.472;2022-11-03T17:31:20;17.90;;;12.98;;
50769;SDS011;36740;48.698;11.472;2022-11-03T17:34:06;21.35;;;15.38;;
50769;SDS011;36740;48.698;11.472;2022-11-03T17:36:56;25.98;;;16.30;;
50769;SDS011;36740;48.698;11.472;2022-11-03T17:39:42;27.73;;;15.02;;
50769;SDS011;36740;48.698;11.472;2022-11-03T17:42:28;22.83;;;14.13;;
50769;SDS011;36740;48.698;11.472;2022-11-03T17:45:15;26.73;;;19.67;;
50769;SDS011;36740;48.698;11.472;2022-11-03T17:48:02;18.75;;;14.93;;
50769;SDS011;36740;48.698;11.472;2022-11-03T17:50:48;16.33;;;11.27;;
50769;SDS011;36740;48.698;11.472;2022-11-03T17:53:39;30.08;;;14.57;;